Time;durP1;ratioP1;P1;durP2;ratioP2;P2;SDS_P1;SDS_P2;PMS_P1;PMS_P2;Temp;Humidity;BMP_temperature;BMP_pressure;BME280_temperature;BME280_humidity;BME280_pressure;Samples;Min_cycle;Max_cycle;Signal;HPM_P1;HPM_P2
2023/06/10 00:00:34;;;;;;;4.65;1.90;;;19.70;99.90;;;;;;4936381;28;20058;-35
2023/06/10 00:03:00;;;;;;;3.90;1.67;;;19.70;99.90;;;;;;4937503;28;20062;-35
2023/06/10 00:05:29;;;;;;;5.68;1.83;;;19.60;99.90;;;;;;4933591;28;20455;-34
2023/06/10 00:07:56;;;;;;;5.90;1.90;;;19.60;99.90;;;;;;4942502;28;20058;-35
2023/06/10 00:10:22;;;;;;;3.60;1.95;;;19.60;99.90;;;;;;4938013;28;20051;-35
2023/06/10 00:12:48;;;;;;;5.07;1.65;;;19.50;99.90;;;;;;4935021;28;21253;-35
2023/06/10 00:15:14;;;;;;;4.97;1.85;;;19.50;99.90;;;;;;4936727;28;20051;-35
2023/06/10 00:17:40;;;;;;;4.00;1.70;;;19.40;99.90;;;;;;4946686;28;20575;-35
2023/06/10 00:20:11;;;;;;;10.95;2.30;;;19.40;99.90;;;;;;4948227;28;20050;-35
2023/06/10 00:22:39;;;;;;;4.50;1.80;;;19.40;99.90;;;;;;4924140;28;20058;-35
2023/06/10 00:25:06;;;;;;;5.28;1.88;;;19.30;99.90;;;;;;4943494;28;20058;-35
2023/06/10 00:27:34;;;;;;;4.38;2.00;;;19.30;99.90;;;;;;4945809;28;20051;-35
2023/06/10 00:30:06;;;;;;;4.85;1.83;;;19.30;99.90;;;;;;4947457;28;20063;-35
2023/06/10 00:32:32;;;;;;;6.07;1.67;;;19.20;99.90;;;;;;4948953;28;20469;-36
2023/06/10 00:34:58;;;;;;;4.55;2.00;;;19.20;99.90;;;;;;4945135;28;20501;-35
2023/06/10 00:37:24;;;;;;;5.28;1.98;;;19.10;99.90;;;;;;4927797;28;20062;-35
2023/06/10 00:39:49;;;;;;;5.10;1.85;;;19.10;99.90;;;;;;4947015;28;20457;-35
2023/06/10 00:42:15;;;;;;;5.18;1.80;;;19.10;99.90;;;;;;4947109;28;20463;-35
2023/06/10 00:44:41;;;;;;;3.63;1.50;;;19.10;99.90;;;;;;4946563;28;20055;-35
2023/06/10 00:47:07;;;;;;;7.35;1.90;;;19.00;99.90;;;;;;4945296;28;20055;-35
2023/06/10 00:49:34;;;;;;;5.43;1.70;;;19.00;99.90;;;;;;4950234;28;20093;-35
2023/06/10 00:52:00;;;;;;;5.85;1.92;;;19.00;99.90;;;;;;4948807;28;20058;-35
2023/06/10 00:54:26;;;;;;;5.50;2.20;;;18.90;99.90;;;;;;4938841;28;20063;-35
2023/06/10 00:56:53;;;;;;;4.03;1.63;;;18.90;99.90;;;;;;4942375;28;20539;-35
2023/06/10 00:59:18;;;;;;;5.13;1.90;;;18.90;99.90;;;;;;4938216;28;20086;-35
2023/06/10 01:01:47;;;;;;;4.00;1.63;;;18.90;99.90;;;;;;4936163;28;20082;-35
2023/06/10 01:04:13;;;;;;;5.57;1.70;;;18.90;99.90;;;;;;4942557;28;20059;-35
2023/06/10 01:06:52;;;;;;;7.13;2.10;;;18.80;99.90;;;;;;4937948;28;21198;-35
2023/06/10 01:09:27;;;;;;;6.43;2.03;;;18.70;99.90;;;;;;4938646;28;20051;-35
2023/06/10 01:12:02;;;;;;;4.55;2.33;;;18.70;99.90;;;;;;4940838;28;20051;-35
2023/06/10 01:14:29;;;;;;;5.05;2.17;;;18.60;99.90;;;;;;4937500;28;20055;-35
2023/06/10 01:16:54;;;;;;;4.70;1.70;;;18.60;99.90;;;;;;4937627;28;20059;-35
2023/06/10 01:19:23;;;;;;;3.90;2.33;;;18.60;99.90;;;;;;4937914;28;20186;-35
2023/06/10 01:21:51;;;;;;;4.30;2.10;;;18.50;99.90;;;;;;4918493;28;20509;-35
2023/06/10 01:24:18;;;;;;;3.42;1.55;;;18.50;99.90;;;;;;4943073;28;20055;-35
2023/06/10 01:26:45;;;;;;;4.13;1.88;;;18.50;99.90;;;;;;4942549;28;20051;-35
2023/06/10 01:29:31;;;;;;;9.13;2.35;;;18.50;99.90;;;;;;4945183;28;20055;-35
2023/06/10 01:32:31;;;;;;;7.68;2.03;;;18.50;99.90;;;;;;4945992;28;20047;-35
2023/06/10 01:34:57;;;;;;;7.05;1.88;;;18.50;99.90;;;;;;4932809;28;20059;-35
2023/06/10 01:37:25;;;;;;;5.03;1.77;;;18.40;99.90;;;;;;4946274;28;20055;-35
2023/06/10 01:39:52;;;;;;;5.05;1.98;;;18.40;99.90;;;;;;4945597;28;20043;-35
2023/06/10 01:42:17;;;;;;;5.32;2.00;;;18.30;99.90;;;;;;4943361;28;20137;-35
2023/06/10 01:44:43;;;;;;;5.60;2.25;;;18.30;99.90;;;;;;4939812;28;20552;-35
2023/06/10 01:47:09;;;;;;;4.57;1.73;;;18.30;99.90;;;;;;4943883;28;20043;-35
2023/06/10 01:49:35;;;;;;;5.53;1.75;;;18.30;99.90;;;;;;4947426;28;20059;-34
2023/06/10 01:52:00;;;;;;;9.43;2.15;;;18.20;99.90;;;;;;4939894;28;20060;-35
2023/06/10 01:54:26;;;;;;;5.60;1.88;;;18.20;99.90;;;;;;4951862;28;20465;-35
2023/06/10 01:56:52;;;;;;;6.03;2.17;;;18.10;99.90;;;;;;4925995;28;20481;-35
2023/06/10 01:59:17;;;;;;;4.88;1.85;;;18.10;99.90;;;;;;4935173;28;20444;-35
2023/06/10 02:01:43;;;;;;;4.45;1.67;;;18.10;99.90;;;;;;4938233;28;20170;-35
2023/06/10 02:04:08;;;;;;;4.32;1.73;;;18.10;99.90;;;;;;4938861;28;20079;-35
2023/06/10 02:06:35;;;;;;;5.85;2.08;;;18.00;99.90;;;;;;4941394;28;20445;-35
2023/06/10 02:09:01;;;;;;;4.47;2.13;;;18.00;99.90;;;;;;4935573;28;20552;-35
2023/06/10 02:11:27;;;;;;;5.13;1.98;;;18.00;99.90;;;;;;4938597;28;20174;-35
2023/06/10 02:13:52;;;;;;;5.80;1.75;;;17.90;99.90;;;;;;4940800;28;20197;-35
2023/06/10 02:16:18;;;;;;;6.43;2.50;;;17.90;99.90;;;;;;4937331;28;20146;-35
2023/06/10 02:18:44;;;;;;;6.05;2.85;;;17.90;99.90;;;;;;4939088;28;20197;-35
2023/06/10 02:21:10;;;;;;;7.57;2.00;;;17.80;99.90;;;;;;4940482;28;20133;-35
2023/06/10 02:23:36;;;;;;;7.25;2.15;;;17.80;99.90;;;;;;4919469;28;20051;-35
2023/06/10 02:26:02;;;;;;;4.10;2.22;;;17.80;99.90;;;;;;4927409;28;20059;-35
2023/06/10 02:28:28;;;;;;;6.35;2.67;;;17.80;99.90;;;;;;4947789;28;20054;-35
2023/06/10 02:30:53;;;;;;;7.10;2.58;;;17.70;99.90;;;;;;4947076;28;20047;-35
2023/06/10 02:33:19;;;;;;;5.20;2.53;;;17.70;99.90;;;;;;4943907;28;20386;-35
2023/06/10 02:35:45;;;;;;;7.78;2.10;;;17.60;99.90;;;;;;4940029;28;20486;-35
2023/06/10 02:38:11;;;;;;;5.28;1.98;;;17.60;99.90;;;;;;4944583;28;20055;-35
2023/06/10 02:40:36;;;;;;;4.55;2.38;;;17.60;99.90;;;;;;4944196;28;20055;-35
2023/06/10 02:43:02;;;;;;;6.07;2.35;;;17.50;99.90;;;;;;4945380;28;20054;-35
2023/06/10 02:45:28;;;;;;;5.65;2.15;;;17.50;99.90;;;;;;4941771;28;20054;-35
2023/06/10 02:47:53;;;;;;;5.70;2.30;;;17.50;99.90;;;;;;4943073;28;20062;-35
2023/06/10 02:50:19;;;;;;;5.00;2.50;;;17.40;99.90;;;;;;4944715;28;20045;-36
2023/06/10 02:52:45;;;;;;;5.93;2.22;;;17.40;99.90;;;;;;4943814;28;20507;-35
2023/06/10 02:55:11;;;;;;;8.15;2.40;;;17.40;99.90;;;;;;4942299;28;20055;-35
2023/06/10 02:57:37;;;;;;;3.80;2.20;;;17.30;99.90;;;;;;4950393;28;20066;-36
2023/06/10 03:00:09;;;;;;;5.65;2.45;;;17.20;99.90;;;;;;4939433;28;20784;-35
2023/06/10 03:02:37;;;;;;;7.05;2.60;;;17.30;99.90;;;;;;4934401;28;20047;-34
2023/06/10 03:05:03;;;;;;;4.13;2.53;;;17.30;99.90;;;;;;4933679;28;20106;-35
2023/06/10 03:07:28;;;;;;;5.15;2.50;;;17.20;99.90;;;;;;4936700;28;20142;-35
2023/06/10 03:09:54;;;;;;;4.90;2.42;;;17.20;99.90;;;;;;4933523;28;20058;-35
2023/06/10 03:12:20;;;;;;;8.10;2.42;;;17.20;99.90;;;;;;4938992;28;20054;-35
2023/06/10 03:14:45;;;;;;;5.72;2.72;;;17.20;99.90;;;;;;4938779;28;20428;-34
2023/06/10 03:17:11;;;;;;;8.00;2.72;;;17.20;99.90;;;;;;4915965;29;20051;-35
2023/06/10 03:19:37;;;;;;;4.82;2.08;;;17.10;99.90;;;;;;4938343;28;20086;-35
2023/06/10 03:22:10;;;;;;;8.27;2.38;;;17.10;99.90;;;;;;4938266;28;20062;-35
2023/06/10 03:24:39;;;;;;;6.25;2.60;;;17.10;99.90;;;;;;4937987;28;20520;-35
2023/06/10 03:27:08;;;;;;;6.47;2.75;;;17.00;99.90;;;;;;4939808;28;20482;-35
2023/06/10 03:29:34;;;;;;;7.35;2.42;;;17.00;99.90;;;;;;4946266;28;20075;-35
2023/06/10 03:32:00;;;;;;;4.93;2.45;;;17.00;99.90;;;;;;4952757;28;20055;-35
2023/06/10 03:34:26;;;;;;;5.50;2.40;;;17.00;99.90;;;;;;4950118;28;20058;-36
2023/06/10 03:36:51;;;;;;;5.22;2.53;;;17.00;99.90;;;;;;4943582;28;20043;-35
2023/06/10 03:39:17;;;;;;;4.68;2.25;;;17.00;99.90;;;;;;4948112;28;20051;-35
2023/06/10 03:41:42;;;;;;;7.15;2.30;;;17.00;99.90;;;;;;4946063;28;20059;-35
2023/06/10 03:44:08;;;;;;;6.35;2.58;;;17.00;99.90;;;;;;4945134;28;20087;-35
2023/06/10 03:46:34;;;;;;;4.38;2.53;;;16.90;99.90;;;;;;4945893;28;20046;-35
2023/06/10 03:49:00;;;;;;;6.78;3.15;;;16.90;99.90;;;;;;4951354;28;20050;-35
2023/06/10 03:51:29;;;;;;;5.25;2.42;;;16.90;99.90;;;;;;4945830;28;20055;-35
2023/06/10 03:53:55;;;;;;;10.65;2.40;;;16.90;99.90;;;;;;4937560;28;20490;-35
2023/06/10 03:56:21;;;;;;;6.40;2.70;;;16.90;99.90;;;;;;4942895;28;20516;-35
2023/06/10 03:58:46;;;;;;;5.82;2.53;;;16.90;99.90;;;;;;4948192;28;20048;-35
2023/06/10 04:01:15;;;;;;;4.47;2.33;;;16.80;99.90;;;;;;4946064;28;20055;-35
2023/06/10 04:03:41;;;;;;;5.93;2.35;;;16.80;99.90;;;;;;4951805;28;20390;-35
2023/06/10 04:06:07;;;;;;;7.72;2.28;;;16.80;99.90;;;;;;4949217;28;20478;-35
2023/06/10 04:08:33;;;;;;;5.82;2.30;;;16.80;99.90;;;;;;4947911;28;20062;-35
2023/06/10 04:11:00;;;;;;;5.22;2.47;;;16.80;99.90;;;;;;4959494;28;20140;-35
2023/06/10 04:13:26;;;;;;;5.40;2.80;;;16.80;99.90;;;;;;4949589;28;20055;-35
2023/06/10 04:15:51;;;;;;;8.63;2.88;;;16.90;99.90;;;;;;4948847;28;20519;-35
2023/06/10 04:18:17;;;;;;;8.75;3.00;;;16.80;99.90;;;;;;4949737;28;20055;-35
2023/06/10 04:20:44;;;;;;;5.90;2.40;;;16.80;99.90;;;;;;4946078;28;20051;-35
2023/06/10 04:23:09;;;;;;;6.63;2.38;;;16.80;99.90;;;;;;4949724;28;20059;-35
2023/06/10 04:25:35;;;;;;;5.53;2.45;;;16.80;99.90;;;;;;4957470;28;20378;-35
2023/06/10 04:28:01;;;;;;;5.70;2.10;;;16.80;99.90;;;;;;4959051;28;20055;-35
2023/06/10 04:30:26;;;;;;;6.63;2.35;;;16.90;99.90;;;;;;4949569;28;20110;-35
2023/06/10 04:32:52;;;;;;;4.45;2.38;;;16.90;99.90;;;;;;4949397;28;20082;-35
2023/06/10 04:35:18;;;;;;;4.32;2.28;;;16.90;99.90;;;;;;4943784;28;20058;-36
2023/06/10 04:37:43;;;;;;;7.00;2.90;;;16.90;99.90;;;;;;4944300;28;20054;-35
2023/06/10 04:40:09;;;;;;;6.07;2.53;;;16.90;99.90;;;;;;4950626;28;20110;-36
2023/06/10 04:42:36;;;;;;;5.47;2.15;;;16.90;99.90;;;;;;4947484;28;20137;-36
2023/06/10 04:45:03;;;;;;;5.57;2.17;;;16.90;99.90;;;;;;4946044;28;20612;-36
2023/06/10 04:47:32;;;;;;;6.03;2.33;;;17.00;99.90;;;;;;4950663;28;20051;-36
2023/06/10 04:49:58;;;;;;;6.07;2.10;;;17.00;99.90;;;;;;4945814;28;20097;-35
2023/06/10 04:52:24;;;;;;;6.90;2.42;;;17.10;99.90;;;;;;4941877;28;20137;-35
2023/06/10 04:54:49;;;;;;;5.88;2.42;;;17.10;99.90;;;;;;4948070;28;20624;-35
2023/06/10 04:57:15;;;;;;;8.02;2.75;;;17.10;99.90;;;;;;4923346;28;20146;-34
2023/06/10 04:59:41;;;;;;;6.47;2.20;;;17.20;99.90;;;;;;4937660;28;20051;-34
2023/06/10 05:02:06;;;;;;;4.13;2.10;;;17.20;99.90;;;;;;4937908;28;20040;-34
2023/06/10 05:04:32;;;;;;;4.28;2.28;;;17.30;99.90;;;;;;4944033;28;20117;-34
2023/06/10 05:06:58;;;;;;;7.35;2.30;;;17.30;99.90;;;;;;4948625;28;20741;-34
2023/06/10 05:09:23;;;;;;;6.53;2.45;;;17.30;99.90;;;;;;4933918;28;20122;-34
2023/06/10 05:11:49;;;;;;;7.05;2.45;;;17.30;99.90;;;;;;4947939;28;20420;-34
2023/06/10 05:14:16;;;;;;;8.52;2.95;;;17.40;99.90;;;;;;4941063;28;20048;-34
2023/06/10 05:16:43;;;;;;;5.85;2.38;;;17.40;99.90;;;;;;4949034;28;20130;-34
2023/06/10 05:19:08;;;;;;;4.88;2.38;;;17.50;99.90;;;;;;4947988;28;20062;-35
2023/06/10 05:21:34;;;;;;;5.82;2.00;;;17.50;99.90;;;;;;4947707;28;20051;-34
2023/06/10 05:24:00;;;;;;;4.63;1.70;;;17.50;99.90;;;;;;4937015;28;20129;-34
2023/06/10 05:26:26;;;;;;;4.45;2.03;;;17.60;99.90;;;;;;4938783;28;20051;-34
2023/06/10 05:28:52;;;;;;;9.43;2.47;;;17.60;99.90;;;;;;4945311;28;20063;-34
2023/06/10 05:31:18;;;;;;;4.82;2.63;;;17.60;99.90;;;;;;4942199;28;20063;-35
2023/06/10 05:33:43;;;;;;;4.70;2.40;;;17.70;99.90;;;;;;4946548;28;20055;-34
2023/06/10 05:36:09;;;;;;;3.55;1.88;;;17.80;99.90;;;;;;4950829;28;20054;-34
2023/06/10 05:38:35;;;;;;;5.88;2.20;;;17.80;99.90;;;;;;4949457;28;20043;-34
2023/06/10 05:41:00;;;;;;;8.05;2.70;;;17.90;99.90;;;;;;4918234;28;20071;-35
2023/06/10 05:43:26;;;;;;;5.10;2.38;;;17.90;99.90;;;;;;4946525;28;20047;-35
2023/06/10 05:45:52;;;;;;;8.05;2.35;;;18.00;99.90;;;;;;4948169;28;20527;-35
2023/06/10 05:48:19;;;;;;;4.70;2.03;;;18.10;99.90;;;;;;4950947;28;20043;-35
2023/06/10 05:50:48;;;;;;;6.03;2.13;;;18.10;99.90;;;;;;4952019;28;20058;-35
2023/06/10 05:53:14;;;;;;;5.13;2.67;;;18.20;99.90;;;;;;4947661;28;20062;-34
2023/06/10 05:55:44;;;;;;;3.00;1.88;;;18.30;99.90;;;;;;4926213;28;20079;-34
2023/06/10 05:58:12;;;;;;;5.18;2.03;;;18.40;99.90;;;;;;4941350;28;20058;-35
2023/06/10 06:00:41;;;;;;;5.13;1.92;;;18.40;99.90;;;;;;4940690;28;20059;-35
2023/06/10 06:03:09;;;;;;;3.95;2.20;;;18.50;99.90;;;;;;4950857;28;20061;-35
2023/06/10 06:05:37;;;;;;;4.68;2.42;;;18.60;99.90;;;;;;4951324;28;20343;-35
2023/06/10 06:08:06;;;;;;;4.22;2.40;;;18.60;99.90;;;;;;4940703;28;20573;-35
2023/06/10 06:10:33;;;;;;;5.63;2.20;;;18.80;99.90;;;;;;4943388;28;20082;-35
2023/06/10 06:13:00;;;;;;;9.13;3.75;;;18.80;99.90;;;;;;4936241;28;20098;-35
2023/06/10 06:15:25;;;;;;;4.75;2.33;;;18.90;99.90;;;;;;4950148;28;20142;-35
2023/06/10 06:17:54;;;;;;;5.07;2.05;;;19.00;99.90;;;;;;4949458;28;20138;-35
2023/06/10 06:20:20;;;;;;;4.65;2.03;;;19.10;99.90;;;;;;4946331;28;20519;-35
2023/06/10 06:22:46;;;;;;;6.30;2.17;;;19.10;99.90;;;;;;4946933;28;20052;-35
2023/06/10 06:25:12;;;;;;;8.65;2.13;;;19.20;99.90;;;;;;4947526;28;20098;-35
2023/06/10 06:27:37;;;;;;;4.80;2.08;;;19.30;99.90;;;;;;4949958;28;20055;-35
2023/06/10 06:30:03;;;;;;;3.60;1.80;;;19.40;99.90;;;;;;4949042;28;20043;-35
2023/06/10 06:32:29;;;;;;;4.38;1.90;;;19.40;99.90;;;;;;4938850;28;20069;-35
2023/06/10 06:34:55;;;;;;;4.97;2.13;;;19.50;99.90;;;;;;4937171;28;20051;-35
2023/06/10 06:37:24;;;;;;;7.60;2.20;;;19.60;99.90;;;;;;4942679;28;20047;-35
2023/06/10 06:39:53;;;;;;;5.32;2.17;;;19.70;99.90;;;;;;4929664;28;20142;-35
2023/06/10 06:42:20;;;;;;;4.93;1.92;;;19.80;99.90;;;;;;4947578;28;20062;-35
2023/06/10 06:44:47;;;;;;;4.78;1.92;;;19.90;99.90;;;;;;4939697;28;20775;-35
2023/06/10 06:47:13;;;;;;;4.97;2.15;;;20.00;99.90;;;;;;4941441;28;20055;-36
2023/06/10 06:49:38;;;;;;;7.28;2.75;;;20.00;99.90;;;;;;4934336;28;20054;-36
2023/06/10 06:52:04;;;;;;;5.45;1.92;;;20.10;99.90;;;;;;4943113;28;20054;-35
2023/06/10 06:54:30;;;;;;;5.50;2.33;;;20.20;99.90;;;;;;4945713;28;20531;-35
2023/06/10 06:56:57;;;;;;;6.35;2.30;;;20.30;99.90;;;;;;4937043;28;20059;-35
2023/06/10 06:59:23;;;;;;;4.63;2.00;;;20.40;99.90;;;;;;4904197;28;20066;-35
2023/06/10 07:01:49;;;;;;;5.35;2.15;;;20.50;99.90;;;;;;4934262;28;20055;-35
2023/06/10 07:04:15;;;;;;;4.28;2.03;;;20.60;99.90;;;;;;4922850;28;20066;-35
2023/06/10 07:06:41;;;;;;;5.53;2.10;;;20.70;99.90;;;;;;4920104;28;20056;-34
2023/06/10 07:09:10;;;;;;;7.13;2.20;;;20.80;99.90;;;;;;4924320;28;20054;-34
2023/06/10 07:11:36;;;;;;;4.13;2.08;;;20.90;99.90;;;;;;4919272;28;20104;-35
2023/06/10 07:14:01;;;;;;;4.38;1.80;;;21.00;99.90;;;;;;4919457;28;20047;-35
2023/06/10 07:16:27;;;;;;;10.70;1.90;;;21.10;99.90;;;;;;4920306;29;20147;-35
2023/06/10 07:18:53;;;;;;;5.80;2.45;;;21.10;99.90;;;;;;4919562;29;21206;-35
2023/06/10 07:21:19;;;;;;;7.70;1.75;;;21.20;99.90;;;;;;4903748;29;20146;-34
2023/06/10 07:23:45;;;;;;;4.38;2.00;;;21.40;99.90;;;;;;4921405;28;20453;-35
2023/06/10 07:26:13;;;;;;;5.75;2.10;;;21.50;99.90;;;;;;4904446;29;20055;-35
2023/06/10 07:28:42;;;;;;;4.63;1.65;;;21.50;99.90;;;;;;4932057;28;20051;-35
2023/06/10 07:31:08;;;;;;;4.68;1.98;;;21.60;99.90;;;;;;4931297;28;20047;-35
2023/06/10 07:33:34;;;;;;;5.90;1.92;;;21.70;99.90;;;;;;4926850;28;20067;-35
2023/06/10 07:36:00;;;;;;;4.90;1.92;;;21.80;99.90;;;;;;4932253;28;20047;-35
2023/06/10 07:38:26;;;;;;;6.90;2.20;;;21.80;99.90;;;;;;4929254;28;20051;-36
2023/06/10 07:40:52;;;;;;;7.07;2.10;;;21.90;99.90;;;;;;4928085;28;20055;-45
2023/06/10 07:43:19;;;;;;;5.70;1.92;;;22.00;99.90;;;;;;4924661;28;20611;-35
2023/06/10 07:45:44;;;;;;;4.30;1.80;;;22.10;99.90;;;;;;4930054;29;20074;-35
2023/06/10 07:48:11;;;;;;;3.55;2.03;;;22.20;99.90;;;;;;4935585;28;20564;-35
2023/06/10 07:50:36;;;;;;;5.72;2.25;;;22.20;99.90;;;;;;4925969;28;20059;-35
2023/06/10 07:53:03;;;;;;;4.47;1.67;;;22.40;99.90;;;;;;4927681;28;21354;-36
2023/06/10 07:55:28;;;;;;;5.03;1.70;;;22.40;99.90;;;;;;4913458;28;20058;-35
2023/06/10 07:57:54;;;;;;;5.30;2.08;;;22.50;99.90;;;;;;4928634;29;20067;-35
2023/06/10 08:00:21;;;;;;;5.60;1.88;;;22.50;99.90;;;;;;4921256;28;20051;-35
2023/06/10 08:02:47;;;;;;;6.53;2.10;;;22.60;99.90;;;;;;4928444;29;20063;-36
2023/06/10 08:05:13;;;;;;;5.07;1.95;;;22.70;99.90;;;;;;4929820;28;20043;-36
2023/06/10 08:07:42;;;;;;;4.03;1.58;;;22.80;99.90;;;;;;4925955;29;20063;-36
2023/06/10 08:10:08;;;;;;;3.70;1.92;;;22.90;99.90;;;;;;4922064;29;20501;-36
2023/06/10 08:12:34;;;;;;;5.38;1.85;;;22.90;99.90;;;;;;4902035;29;20062;-35
2023/06/10 08:15:01;;;;;;;4.30;1.95;;;22.90;99.90;;;;;;4922896;29;20055;-36
2023/06/10 08:17:26;;;;;;;7.72;2.05;;;23.10;99.90;;;;;;4923050;29;20066;-36
2023/06/10 08:19:52;;;;;;;5.00;2.00;;;23.10;99.90;;;;;;4918282;28;20059;-36
2023/06/10 08:22:18;;;;;;;5.55;2.05;;;23.20;99.90;;;;;;4921607;29;20083;-36
2023/06/10 08:24:43;;;;;;;6.43;2.30;;;23.20;99.90;;;;;;4901226;29;20064;-35
2023/06/10 08:27:10;;;;;;;9.00;1.73;;;23.30;99.90;;;;;;4918052;29;20152;-35
2023/06/10 08:29:35;;;;;;;5.30;1.95;;;23.40;99.90;;;;;;4915284;29;20048;-36
2023/06/10 08:32:02;;;;;;;4.18;1.83;;;23.50;99.90;;;;;;4923162;29;20486;-35
2023/06/10 08:34:27;;;;;;;6.80;2.10;;;23.60;99.90;;;;;;4915002;28;20063;-35
2023/06/10 08:36:55;;;;;;;3.97;1.90;;;23.70;99.90;;;;;;4924289;28;20542;-36
2023/06/10 08:39:21;;;;;;;5.28;2.28;;;23.80;99.90;;;;;;4920164;29;20055;-36
2023/06/10 08:42:13;;;;;;;5.13;2.03;;;23.90;99.90;;;;;;4924637;29;20147;-36
2023/06/10 08:44:39;;;;;;;5.35;1.77;;;24.00;99.90;;;;;;4886661;28;20168;-35
2023/06/10 08:47:17;;;;;;;6.38;2.03;;;24.00;99.90;;;;;;4923157;29;20055;-35
2023/06/10 08:49:47;;;;;;;4.53;1.90;;;24.20;99.90;;;;;;4927098;28;20501;-35
2023/06/10 08:52:17;;;;;;;5.13;2.13;;;24.20;99.90;;;;;;4926294;29;20151;-35
2023/06/10 08:54:56;;;;;;;4.28;1.80;;;24.30;99.90;;;;;;4925567;28;20085;-35
2023/06/10 08:57:23;;;;;;;4.00;1.60;;;24.40;99.90;;;;;;4931322;28;20071;-36
2023/06/10 08:59:49;;;;;;;5.15;2.17;;;24.40;99.90;;;;;;4929480;29;20062;-35
2023/06/10 09:02:15;;;;;;;4.80;2.03;;;24.50;99.90;;;;;;4933221;28;20047;-35
2023/06/10 09:04:45;;;;;;;3.63;1.65;;;24.60;99.90;;;;;;4942536;28;20063;-35
2023/06/10 09:07:14;;;;;;;3.22;1.80;;;24.70;99.90;;;;;;4947323;28;20051;-35
2023/06/10 09:09:41;;;;;;;4.90;2.20;;;24.70;99.90;;;;;;4942190;28;20157;-35
2023/06/10 09:12:07;;;;;;;4.28;2.13;;;24.80;99.90;;;;;;4944615;28;20091;-35
2023/06/10 09:14:33;;;;;;;5.60;2.10;;;24.80;99.90;;;;;;4919713;28;20062;-35
2023/06/10 09:16:59;;;;;;;7.50;2.10;;;24.90;99.90;;;;;;4947492;28;20051;-35
2023/06/10 09:19:26;;;;;;;4.00;1.88;;;25.00;99.90;;;;;;4946982;28;20055;-35
2023/06/10 09:21:52;;;;;;;5.63;2.15;;;25.10;99.90;;;;;;4948695;28;20090;-36
2023/06/10 09:24:18;;;;;;;4.78;1.80;;;25.10;99.90;;;;;;4928036;28;20135;-35
2023/06/10 09:26:45;;;;;;;6.57;1.80;;;25.20;99.90;;;;;;4942362;28;20090;-37
2023/06/10 09:29:11;;;;;;;3.67;1.80;;;25.30;99.90;;;;;;4950519;28;20101;-35
2023/06/10 09:31:39;;;;;;;4.95;2.42;;;25.30;99.90;;;;;;4944164;28;20062;-35
2023/06/10 09:34:16;;;;;;;4.38;2.10;;;25.40;99.90;;;;;;4949284;28;20589;-35
2023/06/10 09:36:42;;;;;;;5.80;2.25;;;25.50;99.90;;;;;;4943312;28;20035;-36
2023/06/10 09:39:17;;;;;;;4.97;1.85;;;25.60;99.90;;;;;;4943979;28;20548;-35
2023/06/10 09:41:43;;;;;;;5.28;2.00;;;25.70;99.90;;;;;;4949261;28;20473;-35
2023/06/10 09:44:15;;;;;;;4.80;2.40;;;25.70;99.90;;;;;;4943973;28;20134;-36
2023/06/10 09:46:41;;;;;;;;;;;25.80;99.90;;;;;;4950676;28;20476;-35
2023/06/10 09:49:07;;;;;;;3.15;1.83;;;25.90;99.90;;;;;;4938562;28;19972;-35
2023/06/10 09:51:36;;;;;;;4.07;2.20;;;26.00;99.90;;;;;;4938178;28;20059;-35
2023/06/10 09:54:04;;;;;;;3.67;2.03;;;26.10;99.90;;;;;;4951150;28;20421;-35
2023/06/10 09:56:37;;;;;;;4.60;2.13;;;26.20;99.90;;;;;;4948465;28;20050;-35
2023/06/10 09:59:05;;;;;;;4.53;2.58;;;26.40;99.90;;;;;;4943428;28;20053;-35
2023/06/10 10:01:33;;;;;;;6.47;2.38;;;26.50;99.90;;;;;;4943546;28;20052;-35
2023/06/10 10:03:59;;;;;;;4.15;1.98;;;26.50;99.90;;;;;;4950498;28;20491;-35
2023/06/10 10:06:25;;;;;;;5.53;2.10;;;26.50;99.90;;;;;;4951093;28;20059;-34
2023/06/10 10:08:51;;;;;;;4.30;2.17;;;26.70;99.90;;;;;;4947418;28;20183;-35
2023/06/10 10:11:19;;;;;;;3.47;2.10;;;26.70;99.90;;;;;;4943291;28;20133;-35
2023/06/10 10:13:49;;;;;;;3.90;1.95;;;26.80;99.90;;;;;;4939923;28;20201;-35
2023/06/10 10:16:17;;;;;;;4.32;2.53;;;26.90;99.90;;;;;;4945253;28;20047;-35
2023/06/10 10:18:51;;;;;;;3.72;2.20;;;27.00;99.90;;;;;;4932460;28;20047;-35
2023/06/10 10:21:22;;;;;;;6.38;2.38;;;27.10;99.90;;;;;;4950341;28;20055;-34
2023/06/10 10:24:01;;;;;;;4.80;2.50;;;27.20;99.90;;;;;;4943758;28;20497;-34
2023/06/10 10:26:27;;;;;;;4.95;2.28;;;27.30;99.90;;;;;;4936096;28;20054;-34
2023/06/10 10:29:02;;;;;;;9.38;2.33;;;27.30;99.90;;;;;;4939644;28;20058;-35
2023/06/10 10:31:31;;;;;;;4.07;2.10;;;27.40;99.90;;;;;;4945939;28;20462;-35
2023/06/10 10:34:02;;;;;;;4.25;2.30;;;27.50;99.90;;;;;;4940732;28;20117;-35
2023/06/10 10:36:28;;;;;;;6.25;2.20;;;27.60;99.90;;;;;;4937698;28;20051;-35
2023/06/10 10:38:56;;;;;;;2.75;1.90;;;27.70;99.90;;;;;;4944610;28;20464;-35
2023/06/10 10:41:23;;;;;;;3.70;2.40;;;27.80;99.90;;;;;;4953378;28;20043;-35
2023/06/10 10:43:51;;;;;;;8.40;2.55;;;27.90;99.90;;;;;;4944306;28;20469;-35
2023/06/10 10:46:17;;;;;;;3.70;2.03;;;28.00;99.90;;;;;;4942244;28;20050;-34
2023/06/10 10:48:44;;;;;;;4.57;2.65;;;28.00;99.90;;;;;;4948558;28;20137;-35
2023/06/10 10:51:10;;;;;;;4.90;2.10;;;28.10;99.90;;;;;;4941811;28;20118;-36
2023/06/10 10:53:40;;;;;;;4.30;2.42;;;28.20;99.90;;;;;;4942665;28;20055;-36
2023/06/10 10:56:20;;;;;;;9.85;2.40;;;28.30;99.90;;;;;;4946498;28;20063;-35
2023/06/10 10:59:05;;;;;;;3.05;2.10;;;28.30;99.90;;;;;;4945637;28;20481;-34
2023/06/10 11:01:41;;;;;;;5.00;2.50;;;28.40;99.90;;;;;;4943433;28;20047;-35
2023/06/10 11:04:09;;;;;;;5.03;2.53;;;28.50;99.90;;;;;;4935824;28;20067;-35
2023/06/10 11:06:35;;;;;;;4.72;2.30;;;28.60;99.90;;;;;;4944903;28;20064;-35
2023/06/10 11:09:00;;;;;;;4.00;2.13;;;28.70;99.90;;;;;;4942376;28;20083;-36
2023/06/10 11:11:32;;;;;;;4.85;2.38;;;28.80;99.90;;;;;;4945516;28;20425;-35
2023/06/10 11:14:01;;;;;;;;;;;28.90;99.90;;;;;;4942038;28;20066;-35
2023/06/10 11:16:28;;;;;;;6.30;2.60;;;28.90;99.90;;;;;;4941164;28;19974;-36
2023/06/10 11:18:54;;;;;;;3.90;2.30;;;29.00;99.90;;;;;;4948039;28;20043;-35
2023/06/10 11:21:20;;;;;;;7.18;2.60;;;29.10;99.90;;;;;;4942513;28;20110;-35
2023/06/10 11:23:46;;;;;;;5.35;2.40;;;29.20;99.90;;;;;;4942756;28;20054;-35
2023/06/10 11:26:16;;;;;;;6.70;2.70;;;29.30;99.90;;;;;;4944038;28;20501;-34
2023/06/10 11:29:03;;;;;;;3.53;2.05;;;29.30;99.90;;;;;;4946427;28;20629;-35
2023/06/10 11:31:40;;;;;;;4.13;2.25;;;29.30;99.90;;;;;;4920575;28;20050;-35
2023/06/10 11:34:07;;;;;;;4.53;2.50;;;29.30;99.90;;;;;;4944260;28;20082;-35
2023/06/10 11:36:40;;;;;;;3.67;2.40;;;29.30;99.90;;;;;;4938514;28;20047;-34
2023/06/10 11:39:06;;;;;;;4.35;2.13;;;29.40;99.90;;;;;;4941620;28;20485;-34
2023/06/10 11:41:33;;;;;;;4.20;2.13;;;29.50;99.90;;;;;;4939270;28;20047;-34
2023/06/10 11:44:13;;;;;;;3.80;2.58;;;29.60;99.90;;;;;;4941307;28;20067;-35
2023/06/10 11:46:42;;;;;;;3.72;2.10;;;29.70;99.90;;;;;;4939581;28;20055;-34
2023/06/10 11:49:08;;;;;;;3.92;2.17;;;29.80;99.90;;;;;;4946498;28;20505;-35
2023/06/10 11:51:35;;;;;;;7.35;2.40;;;29.90;99.90;;;;;;4944308;28;20047;-35
2023/06/10 11:54:02;;;;;;;3.38;2.13;;;29.80;99.90;;;;;;4943029;28;20303;-35
2023/06/10 11:56:30;;;;;;;5.88;2.53;;;29.90;99.90;;;;;;4949118;28;20106;-34
2023/06/10 11:59:07;;;;;;;5.28;2.25;;;30.00;99.90;;;;;;4946985;28;20047;-35
2023/06/10 12:01:36;;;;;;;3.38;1.83;;;30.00;99.90;;;;;;4948011;28;21383;-35
2023/06/10 12:04:03;;;;;;;6.25;2.30;;;30.00;99.90;;;;;;4944821;28;20874;-34
2023/06/10 12:06:41;;;;;;;4.78;2.33;;;30.10;99.90;;;;;;4946365;28;20568;-35
2023/06/10 12:09:22;;;;;;;3.63;2.28;;;30.10;99.90;;;;;;4947567;28;20074;-34
2023/06/10 12:12:01;;;;;;;4.15;2.38;;;30.20;99.90;;;;;;4942716;28;20063;-35
2023/06/10 12:14:56;;;;;;;5.03;2.38;;;30.40;99.90;;;;;;4946604;28;20505;-34
2023/06/10 12:17:23;;;;;;;5.32;2.42;;;30.50;99.90;;;;;;4939652;28;20071;-35
2023/06/10 12:19:49;;;;;;;4.57;2.20;;;30.60;99.90;;;;;;4928823;28;20413;-35
2023/06/10 12:22:16;;;;;;;3.22;2.00;;;30.60;99.90;;;;;;4950750;28;20106;-35
2023/06/10 12:25:04;;;;;;;4.80;2.58;;;30.70;99.90;;;;;;4948591;28;20051;-35
2023/06/10 12:27:31;;;;;;;5.95;2.50;;;30.60;99.90;;;;;;4950224;28;20519;-38
2023/06/10 12:30:02;;;;;;;5.30;2.15;;;30.60;99.90;;;;;;4954544;28;20075;-35
2023/06/10 12:32:45;;;;;;;3.55;2.03;;;30.60;99.90;;;;;;4949352;28;20155;-35
2023/06/10 12:35:13;;;;;;;3.75;2.10;;;30.70;99.90;;;;;;4952341;28;20054;-35
2023/06/10 12:37:39;;;;;;;5.28;2.13;;;30.70;99.90;;;;;;4948833;28;20508;-35
2023/06/10 12:40:06;;;;;;;3.17;1.95;;;30.80;99.90;;;;;;4951017;28;20481;-35
2023/06/10 12:42:34;;;;;;;3.80;1.88;;;30.80;99.90;;;;;;4936229;28;20138;-34
2023/06/10 12:45:01;;;;;;;5.43;1.70;;;30.80;99.90;;;;;;4943334;28;20082;-35
2023/06/10 12:47:35;;;;;;;3.03;1.63;;;30.80;99.90;;;;;;4944771;28;20158;-35
2023/06/10 12:50:01;;;;;;;7.15;2.03;;;30.80;99.90;;;;;;4945936;28;20056;-36